createdAt,value
2023-02-25T00:00:30.319Z,91421.09
2023-02-25T00:03:02.712Z,91425.13
2023-02-25T00:05:38.761Z,91420.44
2023-02-25T00:08:11.115Z,91417.25
2023-02-25T00:10:43.467Z,91408.22
2023-02-25T00:13:18.308Z,91422.66
2023-02-25T00:15:51.588Z,91413.41
2023-02-25T00:18:24.066Z,91418.97
2023-02-25T00:20:56.792Z,91414.44
2023-02-25T00:23:29.473Z,91402.28
2023-02-25T00:26:04.698Z,91411.94
2023-02-25T00:28:39.272Z,91401.84
2023-02-25T00:31:14.686Z,91407.88
2023-02-25T00:33:47.659Z,91408.47
2023-02-25T00:36:22.941Z,91404.00
2023-02-25T00:38:56.985Z,91397.91
2023-02-25T00:41:30.180Z,91392.66
2023-02-25T00:44:03.412Z,91390.41
2023-02-25T00:46:36.526Z,91373.00
2023-02-25T00:49:08.900Z,91384.41
2023-02-25T00:51:41.389Z,91386.69
2023-02-25T00:54:13.696Z,91379.91
2023-02-25T00:56:46.805Z,91361.16
2023-02-25T00:59:19.127Z,91363.47
2023-02-25T01:01:52.395Z,91360.06
2023-02-25T01:04:25.179Z,91349.97
2023-02-25T01:06:58.103Z,91356.59
2023-02-25T01:09:31.284Z,91347.47
2023-02-25T01:12:04.013Z,91344.66
2023-02-25T01:14:36.663Z,91337.00
2023-02-25T01:17:10.590Z,91340.94
2023-02-25T01:19:43.081Z,91342.31
2023-02-25T01:22:15.513Z,91338.53
2023-02-25T01:24:47.899Z,91349.88
2023-02-25T01:27:20.261Z,91340.31
2023-02-25T01:29:52.624Z,91345.66
2023-02-25T01:32:25.859Z,91345.44
2023-02-25T01:34:59.102Z,91336.91
2023-02-25T01:37:31.478Z,91342.59
2023-02-25T01:40:05.704Z,91341.53
2023-02-25T01:42:40.064Z,91347.03
2023-02-25T01:45:28.182Z,91337.41
2023-02-25T01:48:08.596Z,91337.25
2023-02-25T01:50:45.535Z,91339.56
2023-02-25T01:53:23.421Z,91344.56
2023-02-25T01:55:58.086Z,91341.84
2023-02-25T01:58:32.304Z,91337.47
2023-02-25T02:01:09.500Z,91338.72
2023-02-25T02:03:43.241Z,91339.53
2023-02-25T02:06:18.229Z,91336.28
2023-02-25T02:08:52.743Z,91331.91
2023-02-25T02:11:25.100Z,91322.38
2023-02-25T02:13:59.052Z,91331.03
2023-02-25T02:16:47.992Z,91322.00
2023-02-25T02:19:33.881Z,91323.63
2023-02-25T02:22:12.365Z,91317.88
2023-02-25T02:25:17.165Z,91319.78
2023-02-25T02:28:15.892Z,91323.41
2023-02-25T02:31:22.571Z,91302.09
2023-02-25T02:34:05.524Z,91301.81
2023-02-25T02:36:47.201Z,91313.03
2023-02-25T02:39:26.286Z,91313.91
2023-02-25T02:42:06.810Z,91309.63
2023-02-25T02:44:46.191Z,91298.47
2023-02-25T02:47:25.282Z,91290.03
2023-02-25T02:50:02.258Z,91294.59
2023-02-25T02:52:39.258Z,91281.19
2023-02-25T02:55:21.477Z,91286.41
2023-02-25T02:57:59.681Z,91292.06
2023-02-25T03:00:39.825Z,91287.78
2023-02-25T03:03:17.598Z,91273.91
2023-02-25T03:05:53.009Z,91287.84
2023-02-25T03:08:28.454Z,91282.13
2023-02-25T03:11:01.343Z,91281.09
2023-02-25T03:13:33.710Z,91277.56
2023-02-25T03:16:11.033Z,91280.44
2023-02-25T03:18:51.012Z,91275.16
2023-02-25T03:21:25.747Z,91275.56
2023-02-25T03:23:59.132Z,91267.31
2023-02-25T03:26:33.548Z,91275.13
2023-02-25T03:29:15.146Z,91262.41
2023-02-25T03:31:51.647Z,91259.00
2023-02-25T03:34:30.330Z,91264.31
2023-02-25T03:37:05.856Z,91257.94
2023-02-25T03:39:43.063Z,91253.63
2023-02-25T03:42:19.781Z,91256.22
2023-02-25T03:44:54.896Z,91244.94
2023-02-25T03:47:29.676Z,91241.69
2023-02-25T03:50:09.074Z,91239.53
2023-02-25T03:52:42.885Z,91231.97
2023-02-25T03:55:29.802Z,91229.09
2023-02-25T03:58:02.236Z,91233.56
2023-02-25T04:00:35.444Z,91248.31
2023-02-25T04:03:07.872Z,91245.56
2023-02-25T04:05:40.880Z,91253.22
2023-02-25T04:08:15.418Z,91252.44
2023-02-25T04:10:48.553Z,91251.69
2023-02-25T04:13:23.273Z,91250.75
2023-02-25T04:15:55.785Z,91263.69
2023-02-25T04:18:28.192Z,91265.78
2023-02-25T04:21:01.330Z,91265.31
2023-02-25T04:23:33.980Z,91268.75
2023-02-25T04:26:06.280Z,91261.31
2023-02-25T04:28:38.605Z,91256.91
2023-02-25T04:31:10.959Z,91251.22
2023-02-25T04:33:43.499Z,91247.06
2023-02-25T04:36:25.925Z,91238.81
2023-02-25T04:38:59.507Z,91236.66
2023-02-25T04:41:34.361Z,91241.22
2023-02-25T04:44:08.078Z,91223.81
2023-02-25T04:46:42.558Z,91224.88
2023-02-25T04:49:15.200Z,91220.34
2023-02-25T04:51:50.694Z,91209.44
2023-02-25T04:54:23.039Z,91209.03
2023-02-25T04:56:55.705Z,91207.22
2023-02-25T04:59:28.006Z,91197.00
2023-02-25T05:02:00.443Z,91193.97
2023-02-25T05:04:32.876Z,91199.16
2023-02-25T05:07:07.063Z,91199.19
2023-02-25T05:09:39.412Z,91205.06
2023-02-25T05:12:11.730Z,91203.28
2023-02-25T05:14:44.164Z,91191.59
2023-02-25T05:17:16.632Z,91186.53
2023-02-25T05:19:48.945Z,91177.34
2023-02-25T05:22:22.167Z,91189.72
2023-02-25T05:24:54.490Z,91195.13
2023-02-25T05:27:26.823Z,91198.19
2023-02-25T05:29:59.205Z,91226.56
2023-02-25T05:32:31.839Z,91221.72
2023-02-25T05:35:04.873Z,91233.78
2023-02-25T05:37:38.222Z,91225.69
2023-02-25T05:40:13.299Z,91235.75
2023-02-25T05:42:48.779Z,91234.56
2023-02-25T05:45:21.144Z,91236.16
2023-02-25T05:47:53.433Z,91247.00
2023-02-25T05:50:25.792Z,91250.34
2023-02-25T05:52:58.869Z,91251.41
2023-02-25T05:55:31.219Z,91252.38
2023-02-25T05:58:03.574Z,91250.22
2023-02-25T06:00:36.567Z,91257.56
2023-02-25T06:03:08.904Z,91262.47
2023-02-25T06:05:41.693Z,91255.28
2023-02-25T06:08:14.739Z,91264.41
2023-02-25T06:10:47.057Z,91256.69
2023-02-25T06:13:19.311Z,91266.72
2023-02-25T06:15:51.953Z,91269.19
2023-02-25T06:18:24.255Z,91258.28
2023-02-25T06:21:02.076Z,91248.72
2023-02-25T06:23:36.559Z,91244.88
2023-02-25T06:26:11.483Z,91238.03
2023-02-25T06:28:44.373Z,91236.06
2023-02-25T06:31:18.345Z,91230.28
2023-02-25T06:33:51.099Z,91244.81
2023-02-25T06:36:23.898Z,91242.97
2023-02-25T06:38:57.429Z,91248.69
2023-02-25T06:41:30.086Z,91252.47
2023-02-25T06:44:03.573Z,91253.91
2023-02-25T06:46:35.862Z,91242.41
2023-02-25T06:49:08.166Z,91241.34
2023-02-25T06:51:40.470Z,91237.88
2023-02-25T06:54:13.473Z,91237.69
2023-02-25T06:56:46.052Z,91235.88
2023-02-25T06:59:18.430Z,91226.53
2023-02-25T07:01:50.730Z,91222.56
2023-02-25T07:04:23.106Z,91212.59
2023-02-25T07:06:55.738Z,91223.00
2023-02-25T07:09:28.719Z,91212.75
2023-02-25T07:12:01.534Z,91211.06
2023-02-25T07:14:33.840Z,91206.59
2023-02-25T07:17:06.271Z,91202.97
2023-02-25T07:19:38.565Z,91199.59
2023-02-25T07:22:14.405Z,91183.97
2023-02-25T07:24:47.387Z,91190.22
2023-02-25T07:27:19.782Z,91187.00
2023-02-25T07:29:52.174Z,91183.31
2023-02-25T07:32:25.195Z,91177.66
2023-02-25T07:34:57.629Z,91180.22
2023-02-25T07:37:30.181Z,91166.28
2023-02-25T07:40:03.539Z,91161.81
2023-02-25T07:42:36.057Z,91166.28
2023-02-25T07:45:12.345Z,91156.16
2023-02-25T07:47:45.301Z,91160.66
2023-02-25T07:50:17.757Z,91145.16
2023-02-25T07:52:50.057Z,91154.56
2023-02-25T07:55:23.096Z,91168.91
2023-02-25T07:57:55.629Z,91144.94
2023-02-25T08:00:27.983Z,91136.25
2023-02-25T08:03:00.931Z,91131.91
2023-02-25T08:05:33.661Z,91120.69
2023-02-25T08:08:06.220Z,91122.78
2023-02-25T08:10:39.249Z,91135.03
2023-02-25T08:13:11.575Z,91126.50
2023-02-25T08:15:44.272Z,91116.84
2023-02-25T08:18:16.719Z,91105.94
2023-02-25T08:20:49.041Z,91125.22
2023-02-25T08:23:22.627Z,91121.06
2023-02-25T08:25:57.091Z,91127.13
2023-02-25T08:28:33.834Z,91107.34
2023-02-25T08:31:11.364Z,91105.09
2023-02-25T08:33:48.660Z,91109.34
2023-02-25T08:36:23.389Z,91122.84
2023-02-25T08:38:56.863Z,91100.34
2023-02-25T08:41:30.237Z,91116.66
2023-02-25T08:44:03.701Z,91115.69
2023-02-25T08:46:38.285Z,91108.44
2023-02-25T08:49:11.129Z,91119.91
2023-02-25T08:51:43.429Z,91109.81
2023-02-25T08:54:15.730Z,91106.47
2023-02-25T08:56:50.512Z,91105.72
2023-02-25T08:59:22.841Z,91106.78
2023-02-25T09:01:55.088Z,91099.28
2023-02-25T09:04:27.579Z,91106.66
2023-02-25T09:07:00.953Z,91111.69
2023-02-25T09:09:33.447Z,91110.28
2023-02-25T09:12:07.036Z,91104.50
2023-02-25T09:14:39.375Z,91108.81
2023-02-25T09:17:11.660Z,91108.81
2023-02-25T09:19:43.961Z,91120.00
2023-02-25T09:22:16.305Z,91104.63
2023-02-25T09:24:48.633Z,91101.19
2023-02-25T09:27:21.539Z,91095.00
2023-02-25T09:29:53.852Z,91096.75
2023-02-25T09:32:26.294Z,91086.75
2023-02-25T09:35:06.585Z,91074.03
2023-02-25T09:37:38.955Z,91073.38
2023-02-25T09:40:18.092Z,91075.53
2023-02-25T09:43:03.197Z,91067.97
2023-02-25T09:45:36.530Z,91056.34
2023-02-25T09:48:17.190Z,91084.91
2023-02-25T09:50:53.119Z,91084.16
2023-02-25T09:53:31.366Z,91057.06
2023-02-25T09:56:06.456Z,91049.78
2023-02-25T09:58:43.637Z,91058.28
2023-02-25T10:01:26.267Z,91044.69
2023-02-25T10:04:05.876Z,91053.84
2023-02-25T10:06:44.093Z,91077.94
2023-02-25T10:09:28.340Z,91061.66
2023-02-25T10:12:09.787Z,91051.47
2023-02-25T10:15:00.079Z,91030.47
2023-02-25T10:17:43.583Z,91038.28
2023-02-25T10:20:42.549Z,91021.53
2023-02-25T10:23:34.794Z,91012.00
2023-02-25T10:26:17.581Z,91006.88
2023-02-25T10:28:54.387Z,91008.19
2023-02-25T10:31:30.502Z,91008.50
2023-02-25T10:34:19.644Z,90995.69
2023-02-25T10:36:55.207Z,91002.44
2023-02-25T10:39:28.798Z,90995.25
2023-02-25T10:42:01.446Z,91003.56
2023-02-25T10:44:34.974Z,91008.31
2023-02-25T10:47:14.440Z,90997.09
2023-02-25T10:50:13.310Z,90980.78
2023-02-25T10:52:58.728Z,90979.50
2023-02-25T10:55:56.739Z,90985.13
2023-02-25T10:58:40.035Z,90969.94
2023-02-25T11:01:14.980Z,90965.34
2023-02-25T11:03:54.864Z,90979.59
2023-02-25T11:06:29.134Z,90973.28
2023-02-25T11:09:04.620Z,90968.50
2023-02-25T11:11:37.873Z,90968.63
2023-02-25T11:14:18.042Z,90968.41
2023-02-25T11:16:50.559Z,90963.94
2023-02-25T11:19:28.833Z,90961.88
2023-02-25T11:22:09.279Z,90966.78
2023-02-25T11:24:42.657Z,90962.84
2023-02-25T11:27:26.685Z,90950.00
2023-02-25T11:30:03.975Z,90955.84
2023-02-25T11:32:42.630Z,90972.94
2023-02-25T11:35:18.624Z,90953.81
2023-02-25T11:37:54.050Z,90951.31
2023-02-25T11:40:28.537Z,90953.03
2023-02-25T11:43:16.280Z,90952.06
2023-02-25T11:45:52.744Z,90959.97
2023-02-25T11:48:29.430Z,90944.22
2023-02-25T11:51:16.658Z,90953.16
2023-02-25T11:54:12.012Z,90941.19
2023-02-25T11:56:50.680Z,90955.75
2023-02-25T11:59:36.417Z,90949.34
2023-02-25T12:02:32.945Z,90948.47
2023-02-25T12:05:36.285Z,90950.41
2023-02-25T12:08:39.412Z,90949.75
2023-02-25T12:11:53.208Z,90962.06
2023-02-25T12:15:02.575Z,90962.06
2023-02-25T12:18:08.088Z,90956.06
2023-02-25T12:21:12.505Z,90954.88
2023-02-25T12:24:28.440Z,90966.28
2023-02-25T12:27:38.442Z,90960.84
2023-02-25T12:30:23.609Z,90949.75
2023-02-25T12:33:13.193Z,90958.03
2023-02-25T12:36:12.355Z,90947.13
2023-02-25T12:39:10.630Z,90935.38
2023-02-25T12:41:47.320Z,90933.50
2023-02-25T12:44:47.618Z,90938.75
2023-02-25T12:47:30.000Z,90931.53
2023-02-25T12:50:33.733Z,90940.56
2023-02-25T12:53:26.957Z,90938.84
2023-02-25T12:56:34.566Z,90937.28
2023-02-25T12:59:46.824Z,90934.53
2023-02-25T13:02:44.029Z,90927.16
2023-02-25T13:05:52.273Z,90926.91
2023-02-25T13:08:46.514Z,90930.00
2023-02-25T13:11:31.216Z,90930.47
2023-02-25T13:14:23.967Z,90940.31
2023-02-25T13:17:24.548Z,90927.75
2023-02-25T13:20:26.833Z,90930.94
2023-02-25T13:23:11.960Z,90920.69
2023-02-25T13:25:58.988Z,90911.66
2023-02-25T13:29:01.232Z,90917.53
2023-02-25T13:31:44.165Z,90914.47
2023-02-25T13:34:29.756Z,90916.00
2023-02-25T13:37:18.259Z,90885.16
2023-02-25T13:40:11.473Z,90905.75
2023-02-25T13:43:13.334Z,90916.09
2023-02-25T13:46:28.397Z,90916.06
2023-02-25T13:49:20.236Z,90899.25
2023-02-25T13:52:24.476Z,90912.72
2023-02-25T13:55:31.674Z,90904.31
2023-02-25T13:58:25.431Z,90911.88
2023-02-25T14:01:12.436Z,90903.69
2023-02-25T14:04:11.074Z,90900.66
2023-02-25T14:07:05.278Z,90900.94
2023-02-25T14:09:45.857Z,90901.72
2023-02-25T14:12:33.093Z,90887.22
2023-02-25T14:15:37.165Z,90876.69
2023-02-25T14:18:31.650Z,90887.78
2023-02-25T14:21:16.924Z,90882.22
2023-02-25T14:23:58.255Z,90880.56
2023-02-25T14:26:38.290Z,90872.16
2023-02-25T14:29:20.815Z,90868.31
2023-02-25T14:32:16.360Z,90864.06
2023-02-25T14:35:05.627Z,90866.00
2023-02-25T14:37:45.931Z,90867.72
2023-02-25T14:40:31.274Z,90870.97
2023-02-25T14:43:26.468Z,90868.13
2023-02-25T14:46:07.073Z,90866.41
2023-02-25T14:48:46.244Z,90868.72
2023-02-25T14:51:44.954Z,90869.50
2023-02-25T14:54:53.253Z,90873.63
2023-02-25T14:58:06.816Z,90881.28
2023-02-25T15:01:10.718Z,90896.38
2023-02-25T15:04:05.011Z,90896.28
2023-02-25T15:06:50.363Z,90888.97
2023-02-25T15:09:55.239Z,90887.16
2023-02-25T15:12:58.847Z,90882.91
2023-02-25T15:15:47.082Z,90888.19
2023-02-25T15:18:57.611Z,90891.66
2023-02-25T15:21:36.937Z,90878.28
2023-02-25T15:24:31.804Z,90873.09
2023-02-25T15:27:41.514Z,90868.69
2023-02-25T15:30:14.738Z,90860.66
2023-02-25T15:33:05.298Z,90870.69
2023-02-25T15:35:59.054Z,90871.44
2023-02-25T15:38:45.415Z,90876.91
2023-02-25T15:41:40.117Z,90864.72
2023-02-25T15:44:36.990Z,90862.75
2023-02-25T15:47:24.106Z,90870.13
2023-02-25T15:49:57.638Z,90871.91
2023-02-25T15:52:55.950Z,90873.00
2023-02-25T15:55:37.297Z,90883.00
2023-02-25T15:58:50.983Z,90886.84
2023-02-25T16:01:30.179Z,90883.13
2023-02-25T16:04:22.912Z,90877.81
2023-02-25T16:06:57.551Z,90888.25
2023-02-25T16:09:32.008Z,90896.75
2023-02-25T16:12:06.968Z,90887.91
2023-02-25T16:14:40.258Z,90885.53
2023-02-25T16:17:18.641Z,90887.50
2023-02-25T16:19:54.336Z,90886.84
2023-02-25T16:22:28.400Z,90882.81
2023-02-25T16:25:03.215Z,90878.38
2023-02-25T16:27:51.693Z,90878.38
2023-02-25T16:30:29.726Z,90868.69
2023-02-25T16:33:11.411Z,90876.16
2023-02-25T16:35:55.350Z,90893.63
2023-02-25T16:38:44.767Z,90894.16
2023-02-25T16:41:17.829Z,90891.13
2023-02-25T16:43:50.284Z,90891.03
2023-02-25T16:46:27.909Z,90905.06
2023-02-25T16:49:01.731Z,90907.91
2023-02-25T16:51:36.625Z,90891.16
2023-02-25T16:54:13.764Z,90895.84
2023-02-25T16:56:50.540Z,90899.41
2023-02-25T16:59:23.468Z,90904.84
2023-02-25T17:01:58.752Z,90911.69
2023-02-25T17:04:33.609Z,90907.91
2023-02-25T17:07:10.618Z,90915.94
2023-02-25T17:09:45.169Z,90911.81
2023-02-25T17:12:22.252Z,90919.66
2023-02-25T17:14:55.542Z,90900.63
2023-02-25T17:17:32.312Z,90917.38
2023-02-25T17:20:08.443Z,90925.44
2023-02-25T17:22:41.213Z,90915.00
2023-02-25T17:25:15.657Z,90938.69
2023-02-25T17:27:50.306Z,90924.78
2023-02-25T17:30:39.177Z,90915.75
2023-02-25T17:33:20.996Z,90917.72
2023-02-25T17:35:57.323Z,90920.00
2023-02-25T17:38:29.903Z,90916.19
2023-02-25T17:41:02.744Z,90924.78
2023-02-25T17:43:37.582Z,90916.06
2023-02-25T17:46:24.661Z,90924.25
2023-02-25T17:48:59.315Z,90905.41
2023-02-25T17:51:34.275Z,90916.41
2023-02-25T17:54:09.024Z,90900.41
2023-02-25T17:56:41.585Z,90903.91
2023-02-25T17:59:34.860Z,90906.84
2023-02-25T18:02:30.118Z,90903.25
2023-02-25T18:05:29.558Z,90897.16
2023-02-25T18:08:17.456Z,90896.38
2023-02-25T18:10:55.746Z,90901.50
2023-02-25T18:13:34.387Z,90894.56
2023-02-25T18:16:48.244Z,90895.75
2023-02-25T18:19:35.199Z,90892.59
2023-02-25T18:29:11.982Z,90886.38
2023-02-25T18:31:44.641Z,90882.25
2023-02-25T18:34:16.989Z,90879.34
2023-02-25T18:36:49.408Z,90892.81
2023-02-25T18:39:24.957Z,90879.22
2023-02-25T18:41:57.317Z,90878.44
2023-02-25T18:44:30.315Z,90891.19
2023-02-25T18:47:02.685Z,90892.28
2023-02-25T18:49:35.034Z,90893.69
2023-02-25T18:52:19.488Z,90883.34
2023-02-25T18:54:51.972Z,90881.28
2023-02-25T18:57:25.792Z,90878.66
2023-02-25T18:59:59.180Z,90870.53
2023-02-25T19:02:34.263Z,90902.59
2023-02-25T19:05:07.073Z,90892.59
2023-02-25T19:07:39.694Z,90893.25
2023-02-25T19:10:17.442Z,90895.41
2023-02-25T19:12:53.309Z,90903.44
2023-02-25T19:15:26.357Z,90897.59
2023-02-25T19:17:58.778Z,90909.00
2023-02-25T19:20:31.244Z,90886.16
2023-02-25T19:23:04.286Z,90879.53
2023-02-25T19:25:37.205Z,90896.28
2023-02-25T19:28:10.167Z,90918.03
2023-02-25T19:30:43.518Z,90919.00
2023-02-25T19:33:16.023Z,90925.63
2023-02-25T19:35:48.390Z,90919.66
2023-02-25T19:38:20.707Z,90913.88
2023-02-25T19:40:53.710Z,90935.31
2023-02-25T19:43:26.001Z,90913.44
2023-02-25T19:45:59.017Z,90924.78
2023-02-25T19:48:31.297Z,90913.88
2023-02-25T19:51:08.033Z,90921.25
2023-02-25T19:53:40.287Z,90925.72
2023-02-25T19:56:12.660Z,90924.50
2023-02-25T19:58:44.983Z,90907.56
2023-02-25T20:01:18.272Z,90909.19
2023-02-25T20:03:50.742Z,90898.22
2023-02-25T20:06:25.363Z,90900.28
2023-02-25T20:09:00.466Z,90898.88
2023-02-25T20:11:33.000Z,90889.03
2023-02-25T20:14:06.001Z,90890.19
2023-02-25T20:16:39.988Z,90888.22
2023-02-25T20:19:12.334Z,90894.63
2023-02-25T20:21:44.661Z,90893.09
2023-02-25T20:24:17.104Z,90901.69
2023-02-25T20:26:49.505Z,90894.97
2023-02-25T20:29:22.235Z,90909.53
2023-02-25T20:31:56.928Z,90909.53
2023-02-25T20:34:31.183Z,90903.44
2023-02-25T20:37:10.049Z,90906.50
2023-02-25T20:39:50.022Z,90932.69
2023-02-25T20:42:25.162Z,90907.13
2023-02-25T20:44:58.815Z,90925.06
2023-02-25T20:47:35.375Z,90913.44
2023-02-25T20:50:09.097Z,90901.28
2023-02-25T20:52:41.661Z,90905.41
2023-02-25T20:55:14.225Z,90905.94
2023-02-25T20:57:46.497Z,90915.94
2023-02-25T21:00:19.859Z,90901.19
2023-02-25T21:02:53.090Z,90896.28
2023-02-25T21:05:25.421Z,90901.41
2023-02-25T21:07:57.696Z,90891.72
2023-02-25T21:10:29.992Z,90889.00
2023-02-25T21:13:02.317Z,90881.38
2023-02-25T21:15:35.867Z,90875.53
2023-02-25T21:18:08.905Z,90867.28
2023-02-25T21:20:41.319Z,90876.94
2023-02-25T21:23:13.592Z,90867.91
2023-02-25T21:25:46.364Z,90830.50
2023-02-25T21:28:18.683Z,90853.66
2023-02-25T21:30:51.913Z,90870.41
2023-02-25T21:33:24.971Z,90869.88
2023-02-25T21:35:57.365Z,90864.66
2023-02-25T21:38:29.890Z,90870.41
2023-02-25T21:41:06.151Z,90881.06
2023-02-25T21:43:39.442Z,90869.53
2023-02-25T21:46:14.704Z,90851.38
2023-02-25T21:48:49.799Z,90862.06
2023-02-25T21:51:24.520Z,90852.16
2023-02-25T21:53:59.015Z,90860.84
2023-02-25T21:56:32.318Z,90846.59
2023-02-25T21:59:05.942Z,90834.84
2023-02-25T22:01:40.065Z,90841.50
2023-02-25T22:04:13.332Z,90842.59
2023-02-25T22:06:48.146Z,90853.56
2023-02-25T22:09:20.412Z,90850.84
2023-02-25T22:11:52.694Z,90854.84
2023-02-25T22:14:25.504Z,90849.66
2023-02-25T22:16:57.842Z,90842.47
2023-02-25T22:19:30.777Z,90856.38
2023-02-25T22:22:03.115Z,90847.59
2023-02-25T22:24:35.509Z,90859.09
2023-02-25T22:27:07.951Z,90863.00
2023-02-25T22:29:40.270Z,90869.66
2023-02-25T22:32:12.654Z,90855.84
2023-02-25T22:34:45.840Z,90864.66
2023-02-25T22:37:18.100Z,90864.66
2023-02-25T22:39:50.403Z,90865.09
2023-02-25T22:42:23.815Z,90857.91
2023-02-25T22:44:56.117Z,90863.91
2023-02-25T22:47:28.456Z,90850.63
2023-02-25T22:50:01.434Z,90852.78
2023-02-25T22:52:34.010Z,90855.09
2023-02-25T22:55:07.745Z,90861.59
2023-02-25T22:57:40.067Z,90866.94
2023-02-25T23:00:16.118Z,90857.38
2023-02-25T23:02:48.414Z,90857.69
2023-02-25T23:05:21.598Z,90858.47
2023-02-25T23:07:53.959Z,90845.75
2023-02-25T23:10:27.312Z,90846.69
2023-02-25T23:13:01.521Z,90843.97
2023-02-25T23:15:35.048Z,90818.97
2023-02-25T23:18:08.840Z,90843.13
2023-02-25T23:20:42.005Z,90857.00
2023-02-25T23:23:16.745Z,90859.72
2023-02-25T23:25:51.464Z,90858.34
2023-02-25T23:28:23.729Z,90868.00
2023-02-25T23:30:56.031Z,90867.56
2023-02-25T23:33:29.133Z,90874.38
2023-02-25T23:36:05.464Z,90865.25
2023-02-25T23:38:37.812Z,90872.41
2023-02-25T23:41:10.156Z,90874.06
2023-02-25T23:43:42.447Z,90876.66
2023-02-25T23:46:14.865Z,90863.94
2023-02-25T23:48:47.473Z,90872.75
2023-02-25T23:51:20.377Z,90865.66
2023-02-25T23:53:53.470Z,90865.03
2023-02-25T23:56:27.258Z,90850.13
2023-02-25T23:58:59.990Z,90861.78
